Vicksburg, Michigan
Current Conditions -  °F | °C
As of 4:53 PM on Sunday 21 Dec 2014 (Local Time) from KAZO Reporting Station
Clear Clear  
Wind Chill: 29°   Ceiling: Unl
Heat Index: 34°   Visibility: 7mi
Dew Point: 24°   Wind: 6mph
Humidity: 67%   Direction: NA
Pressure: 30.16"   Gusts: NA
Location:  42.12°N, 85.53°W
Report Text: KAZO 212153Z VRB05KT 7SM CLR 01/M04 A3016 RMK AO2 SLP224 T00111044
Loading
Personal Weather Stations






























Interactive Weather Map New forecast layout! Learn more

10-Day Weather Forecast

Advertisements
Track Severe Weather on mobile